createdAt,value
2019-01-27T10:38:54.873Z,88.90
2019-01-27T10:41:33.813Z,89.31
2019-01-27T10:44:06.535Z,87.90
2019-01-27T10:46:57.342Z,87.06
2019-01-27T10:49:33.865Z,86.94
2019-01-27T10:52:24.134Z,87.23
2019-01-27T10:55:03.612Z,85.91
2019-01-27T10:57:36.968Z,86.10
2019-01-27T11:00:30.666Z,85.55
2019-01-27T11:03:16.221Z,84.95
2019-01-27T11:05:54.948Z,84.99
2019-01-27T11:08:44.398Z,85.15
2019-01-27T11:11:33.264Z,84.71
2019-01-27T11:14:22.716Z,83.62
2019-01-27T11:16:58.889Z,84.54
2019-01-27T11:19:47.934Z,84.21
2019-01-27T11:22:38.147Z,84.38
2019-01-27T11:25:27.133Z,83.29
2019-01-27T11:27:59.988Z,83.21
2019-01-27T11:30:44.706Z,82.65
2019-01-27T11:33:20.317Z,81.93
2019-01-27T11:35:52.910Z,81.70
2019-01-27T11:38:41.822Z,80.79
2019-01-27T11:41:14.467Z,79.93
2019-01-27T11:43:59.299Z,79.20
2019-01-27T11:46:50.258Z,76.71
2019-01-27T11:49:26.025Z,75.20
2019-01-27T11:51:57.134Z,73.48
2019-01-27T11:54:28.147Z,67.51
2019-01-27T11:56:59.264Z,63.69
2019-01-27T11:59:30.223Z,60.08
2019-01-27T12:02:01.435Z,62.70
2019-01-27T12:04:32.474Z,66.15
2019-01-27T12:07:03.569Z,69.27
2019-01-27T12:09:35.175Z,72.36
2019-01-27T12:12:06.995Z,73.54
2019-01-27T12:14:38.879Z,73.03
2019-01-27T12:17:10.374Z,72.98
2019-01-27T12:19:42.761Z,73.10
2019-01-27T12:22:14.523Z,71.76
2019-01-27T12:24:46.117Z,66.06
2019-01-27T12:27:17.878Z,60.45
2019-01-27T12:29:49.544Z,59.16
2019-01-27T12:32:41.530Z,57.09
2019-01-27T12:35:12.884Z,54.40
2019-01-27T12:37:44.456Z,56.03
2019-01-27T12:40:19.051Z,56.82
2019-01-27T12:42:50.434Z,55.89
2019-01-27T12:45:22.236Z,56.37
2019-01-27T12:47:53.868Z,57.80
2019-01-27T12:50:26.161Z,59.31
2019-01-27T12:52:57.912Z,58.90
2019-01-27T12:55:29.567Z,55.82
2019-01-27T12:58:01.403Z,52.75
2019-01-27T13:00:36.214Z,52.91
2019-01-27T13:03:07.895Z,50.55
2019-01-27T13:05:39.735Z,50.36
2019-01-27T13:08:11.295Z,51.54
2019-01-27T13:10:43.627Z,51.57
2019-01-27T13:13:18.188Z,50.77
2019-01-27T13:15:49.575Z,48.60
2019-01-27T13:18:21.914Z,50.40
2019-01-27T13:20:52.972Z,53.12
2019-01-27T13:23:24.564Z,54.66
2019-01-27T13:25:55.808Z,56.81
2019-01-27T13:28:27.467Z,55.70
2019-01-27T13:31:01.414Z,54.10
2019-01-27T13:33:33.435Z,56.08
2019-01-27T13:36:06.526Z,58.31
2019-01-27T13:38:38.095Z,58.57
2019-01-27T13:41:10.945Z,55.41
2019-01-27T13:43:42.268Z,55.45
2019-01-27T13:46:13.819Z,53.60
2019-01-27T13:48:44.883Z,55.40
2019-01-27T13:51:15.944Z,53.70
2019-01-27T13:53:47.856Z,51.37
2019-01-27T13:56:19.341Z,53.72
2019-01-27T13:58:51.197Z,54.80
2019-01-27T14:01:22.739Z,55.28
2019-01-27T14:03:54.032Z,53.66
2019-01-27T14:06:25.079Z,56.39
2019-01-27T14:08:56.129Z,58.25
2019-01-27T14:11:27.146Z,59.70
2019-01-27T14:13:58.144Z,63.31
2019-01-27T14:16:29.170Z,60.49
2019-01-27T14:19:00.108Z,57.45
2019-01-27T14:21:31.268Z,56.94
2019-01-27T14:24:02.198Z,56.09
2019-01-27T14:26:33.180Z,56.88
2019-01-27T14:29:04.322Z,57.55
2019-01-27T14:31:35.208Z,59.20
2019-01-27T14:34:06.150Z,61.72
2019-01-27T14:36:58.982Z,64.48
2019-01-27T14:39:40.254Z,65.73
2019-01-27T14:42:11.287Z,65.70
2019-01-27T14:44:42.252Z,65.78
2019-01-27T14:47:13.204Z,64.12
2019-01-27T14:49:44.094Z,61.29
2019-01-27T14:52:15.026Z,59.60
2019-01-27T14:54:45.910Z,60.15
2019-01-27T14:57:16.900Z,61.95
2019-01-27T14:59:47.749Z,62.56
2019-01-27T15:02:18.680Z,64.37
2019-01-27T15:04:49.795Z,66.33
2019-01-27T15:07:20.812Z,67.57
2019-01-27T15:09:51.790Z,67.64
2019-01-27T15:12:23.600Z,66.69
2019-01-27T15:14:55.216Z,64.13
2019-01-27T15:17:26.930Z,62.51
2019-01-27T15:19:58.605Z,62.65
2019-01-27T15:22:32.220Z,61.60
2019-01-27T15:25:04.122Z,62.29
2019-01-27T15:27:35.590Z,64.73
2019-01-27T15:30:20.874Z,66.87
2019-01-27T15:32:52.464Z,68.54
2019-01-27T15:35:24.157Z,69.90
2019-01-27T15:37:55.954Z,70.82
2019-01-27T15:40:27.583Z,71.23
2019-01-27T15:42:59.397Z,72.50
2019-01-27T15:45:32.217Z,72.92
2019-01-27T15:48:03.827Z,73.71
2019-01-27T15:50:36.682Z,74.14
2019-01-27T15:53:07.781Z,74.58
2019-01-27T15:55:39.534Z,75.30
2019-01-27T15:58:11.003Z,75.80
2019-01-27T16:00:42.766Z,76.37
2019-01-27T16:03:14.384Z,77.31
2019-01-27T16:05:46.271Z,77.63
2019-01-27T16:08:19.083Z,77.96
2019-01-27T16:10:51.492Z,78.33
2019-01-27T16:13:23.414Z,78.69
2019-01-27T16:15:54.814Z,79.67
2019-01-27T16:18:26.400Z,80.00
2019-01-27T16:20:57.726Z,80.53
2019-01-27T16:23:33.603Z,80.86
2019-01-27T16:26:05.506Z,81.85
2019-01-27T16:28:37.340Z,82.07
2019-01-27T16:31:16.769Z,81.80
2019-01-27T16:33:49.735Z,82.13
2019-01-27T16:36:21.237Z,82.10
2019-01-27T16:38:53.046Z,81.55
2019-01-27T16:41:24.662Z,81.40
2019-01-27T16:43:57.500Z,81.59
2019-01-27T16:46:29.437Z,81.95
2019-01-27T16:49:01.106Z,81.70
2019-01-27T16:51:32.707Z,81.72
2019-01-27T16:54:04.580Z,82.06
2019-01-27T16:56:35.621Z,82.45
2019-01-27T16:59:07.382Z,82.66
2019-01-27T17:01:39.029Z,83.02
2019-01-27T17:04:10.654Z,83.10
2019-01-27T17:06:42.412Z,83.38
2019-01-27T17:09:14.760Z,83.76
2019-01-27T17:11:46.563Z,83.97
2019-01-27T17:14:18.223Z,84.62
2019-01-27T17:16:50.181Z,84.43
2019-01-27T17:19:22.921Z,84.31
2019-01-27T17:21:55.249Z,84.41
2019-01-27T17:24:28.167Z,84.37
2019-01-27T17:26:59.868Z,83.86
2019-01-27T17:29:34.314Z,84.20
2019-01-27T17:32:05.541Z,84.85
2019-01-27T17:34:36.462Z,85.11
2019-01-27T17:37:07.571Z,85.35
2019-01-27T17:39:38.502Z,85.78
2019-01-27T17:42:09.811Z,85.95
2019-01-27T17:44:40.800Z,85.68
2019-01-27T17:47:11.821Z,85.94
2019-01-27T17:49:42.781Z,86.35
2019-01-27T17:52:13.780Z,86.38
2019-01-27T17:54:44.792Z,87.09
2019-01-27T17:57:17.347Z,87.28
2019-01-27T17:59:49.984Z,87.65
2019-01-27T18:02:40.868Z,88.09
2019-01-27T18:05:13.535Z,88.17
2019-01-27T18:07:52.210Z,88.74
2019-01-27T18:10:24.739Z,89.14
2019-01-27T18:12:57.577Z,89.53
2019-01-27T18:15:28.956Z,89.78
2019-01-27T18:18:05.049Z,90.04
2019-01-27T18:20:43.304Z,90.23
2019-01-27T18:23:22.619Z,91.04
2019-01-27T18:26:19.535Z,91.27
2019-01-27T18:29:17.463Z,91.20
2019-01-27T18:32:06.137Z,91.24
2019-01-27T18:34:43.480Z,90.97
2019-01-27T18:37:32.281Z,91.33
2019-01-27T18:40:21.151Z,91.54
2019-01-27T18:42:59.425Z,90.84
2019-01-27T18:45:39.255Z,91.70
2019-01-27T18:48:13.768Z,91.46
2019-01-27T18:51:11.350Z,91.76
2019-01-27T18:53:45.962Z,91.81
2019-01-27T18:56:24.267Z,92.09
2019-01-27T18:59:21.632Z,91.84
2019-01-27T19:02:04.871Z,91.82
2019-01-27T19:05:09.619Z,91.74
2019-01-27T19:08:06.229Z,91.62
2019-01-27T19:11:00.708Z,91.87
2019-01-27T19:13:46.555Z,91.85
2019-01-27T19:16:35.635Z,91.83
2019-01-27T19:19:18.939Z,91.92
2019-01-27T19:21:57.005Z,92.35
2019-01-27T19:24:49.726Z,92.42
2019-01-27T19:27:50.033Z,92.07
2019-01-27T19:30:49.447Z,91.85
2019-01-27T19:33:38.120Z,92.19
2019-01-27T19:36:30.048Z,92.66
2019-01-27T19:39:11.103Z,92.64
2019-01-27T19:42:00.724Z,92.47
2019-01-27T19:44:49.943Z,92.35
2019-01-27T19:47:21.380Z,92.24
2019-01-27T19:50:05.183Z,91.72
2019-01-27T19:52:53.804Z,91.80
2019-01-27T19:55:30.052Z,91.56
2019-01-27T19:58:16.970Z,91.73
2019-01-27T20:01:19.570Z,91.78
2019-01-27T20:03:49.212Z,91.79
2019-01-27T20:06:31.377Z,91.95
2019-01-27T20:09:19.704Z,91.68
2019-01-27T20:12:12.809Z,91.67
2019-01-27T20:14:54.915Z,91.61
2019-01-27T20:17:52.063Z,91.62
2019-01-27T20:20:38.914Z,91.84
2019-01-27T20:23:25.780Z,92.10
2019-01-27T20:26:06.004Z,91.57
2019-01-27T20:28:53.272Z,91.34
2019-01-27T20:31:56.844Z,91.69
2019-01-27T20:34:52.335Z,91.27
2019-01-27T20:37:46.951Z,90.99
2019-01-27T20:40:42.103Z,90.98
2019-01-27T20:46:27.399Z,91.39
2019-01-27T20:49:25.631Z,91.47
2019-01-27T20:52:16.169Z,91.44
2019-01-27T20:55:08.078Z,91.25
2019-01-27T20:57:53.887Z,91.21
2019-01-27T21:00:31.419Z,91.34
2019-01-27T21:03:19.297Z,91.87
2019-01-27T21:05:55.672Z,91.49
2019-01-27T21:08:45.695Z,91.03
2019-01-27T21:11:28.713Z,90.41
2019-01-27T21:14:19.829Z,90.46
2019-01-27T21:17:15.732Z,90.24
2019-01-27T21:19:42.559Z,90.30
2019-01-27T21:22:21.513Z,90.44
2019-01-27T21:25:12.161Z,90.56
2019-01-27T21:27:40.106Z,90.35
2019-01-27T21:30:22.898Z,90.09
2019-01-27T21:33:11.625Z,90.14
2019-01-27T21:35:52.191Z,90.38
2019-01-27T21:41:23.869Z,90.41
2019-01-27T21:44:10.355Z,90.92
2019-01-27T21:46:51.861Z,91.21
2019-01-27T21:49:45.645Z,91.30
2019-01-27T21:52:27.848Z,91.55
2019-01-27T21:55:00.845Z,92.28
2019-01-27T21:57:31.802Z,92.66
2019-01-27T22:00:03.151Z,93.32
2019-01-27T22:02:34.091Z,93.28
2019-01-27T22:05:06.416Z,93.53
2019-01-27T22:07:37.319Z,93.74
2019-01-27T22:10:11.162Z,93.86
2019-01-27T22:12:42.174Z,94.38
2019-01-27T22:15:14.416Z,94.77
2019-01-27T22:17:45.415Z,95.51
2019-01-27T22:20:16.830Z,96.20
2019-01-27T22:22:47.833Z,96.92
2019-01-27T22:25:18.801Z,97.73
2019-01-27T22:27:49.754Z,98.94
2019-01-27T22:30:20.681Z,99.70
2019-01-27T22:32:51.717Z,100.00
2019-01-27T22:35:22.750Z,100.00
2019-01-27T22:37:53.738Z,100.00
2019-01-27T22:40:24.695Z,100.00
2019-01-27T22:42:55.629Z,100.00
2019-01-27T22:45:26.593Z,100.00
2019-01-27T22:47:57.531Z,100.00
2019-01-27T22:50:28.473Z,100.00
2019-01-27T22:52:59.424Z,100.00
2019-01-27T22:55:30.407Z,100.00
2019-01-27T22:58:01.379Z,100.00
2019-01-27T23:00:39.785Z,100.00
2019-01-27T23:03:10.650Z,100.00
2019-01-27T23:05:41.649Z,100.00
2019-01-27T23:08:12.515Z,100.00
2019-01-27T23:10:43.540Z,100.00
2019-01-27T23:13:14.559Z,100.00
2019-01-27T23:15:45.606Z,100.00
2019-01-27T23:18:16.544Z,100.00
2019-01-27T23:20:47.536Z,100.00
2019-01-27T23:23:18.486Z,100.00
2019-01-27T23:25:50.480Z,100.00
2019-01-27T23:28:21.385Z,100.00
2019-01-27T23:30:52.437Z,100.00
2019-01-27T23:33:23.427Z,100.00
2019-01-27T23:35:54.375Z,100.00
2019-01-27T23:38:25.299Z,100.00
2019-01-27T23:40:56.236Z,100.00
2019-01-27T23:43:27.383Z,100.00
2019-01-27T23:45:59.281Z,100.00
2019-01-27T23:48:30.788Z,100.00
2019-01-27T23:51:01.716Z,100.00
2019-01-27T23:53:32.698Z,100.00
2019-01-27T23:56:03.713Z,100.00
2019-01-27T23:58:34.614Z,100.00
